Time;durP1;ratioP1;P1;durP2;ratioP2;P2;SDS_P1;SDS_P2;PMS_P1;PMS_P2;Temp;Humidity;BMP_temperature;BMP_pressure;BME280_temperature;BME280_humidity;BME280_pressure;Samples;Min_cycle;Max_cycle;Signal;HPM_P1;HPM_P2
2024/03/09 00:02:00;;;;;;;23.77;22.35;;;;;;;;;;5113695;27;20024;-60
2024/03/09 00:04:25;;;;;;;25.15;23.55;;;;;;;;;;5094064;27;20130;-60
2024/03/09 00:06:50;;;;;;;23.98;22.58;;;;;;;;;;5114484;27;20091;-60
2024/03/09 00:09:16;;;;;;;23.63;22.33;;;;;;;;;;5110221;27;20035;-60
2024/03/09 00:11:41;;;;;;;24.23;22.67;;;;;;;;;;5114068;27;20034;-60
2024/03/09 00:14:06;;;;;;;23.15;21.85;;;;;;;;;;5109468;27;20055;-60
2024/03/09 00:16:32;;;;;;;22.50;21.20;;;;;;;;;;5112129;27;20061;-60
2024/03/09 00:18:57;;;;;;;24.98;23.38;;;;;;;;;;5111794;27;20020;-60
2024/03/09 00:21:23;;;;;;;23.83;22.42;;;;;;;;;;5095730;27;20042;-60
2024/03/09 00:23:50;;;;;;;25.33;23.02;;;;;;;;;;5078579;27;20030;-60
2024/03/09 00:26:16;;;;;;;24.00;22.30;;;;;;;;;;5110950;27;20107;-60
2024/03/09 00:28:42;;;;;;;23.75;22.40;;;;;;;;;;5113252;27;20074;-59
2024/03/09 00:31:07;;;;;;;22.20;20.90;;;;;;;;;;5113072;27;20490;-59
2024/03/09 00:33:33;;;;;;;23.15;21.73;;;;;;;;;;5114688;27;20115;-59
2024/03/09 00:35:59;;;;;;;23.88;22.27;;;;;;;;;;5111637;27;20437;-59
2024/03/09 00:38:24;;;;;;;23.30;21.92;;;;;;;;;;5092089;27;20035;-59
2024/03/09 00:40:50;;;;;;;25.00;21.75;;;;;;;;;;5075945;27;20027;-60
2024/03/09 00:43:15;;;;;;;23.02;21.40;;;;;;;;;;5114969;27;20046;-59
2024/03/09 00:45:41;;;;;;;23.23;21.83;;;;;;;;;;5108744;27;20177;-59
2024/03/09 00:48:07;;;;;;;24.17;22.60;;;;;;;;;;5112969;27;20032;-59
2024/03/09 00:50:33;;;;;;;24.65;23.10;;;;;;;;;;5110852;27;20043;-59
2024/03/09 00:52:58;;;;;;;23.05;21.73;;;;;;;;;;5114488;27;20035;-59
2024/03/09 00:55:24;;;;;;;23.55;22.13;;;;;;;;;;5110706;27;20519;-59
2024/03/09 00:57:50;;;;;;;22.98;21.67;;;;;;;;;;5075870;27;20027;-59
2024/03/09 01:00:18;;;;;;;23.75;22.35;;;;;;;;;;5090638;28;20793;-59
2024/03/09 01:02:46;;;;;;;24.10;22.48;;;;;;;;;;5110339;27;20086;-59
2024/03/09 01:05:11;;;;;;;25.08;23.33;;;;;;;;;;5112784;27;20028;-59
2024/03/09 01:07:38;;;;;;;25.50;23.95;;;;;;;;;;5110551;27;20039;-59
2024/03/09 01:10:07;;;;;;;25.42;23.88;;;;;;;;;;5111698;27;20034;-59
2024/03/09 01:12:33;;;;;;;28.80;26.98;;;;;;;;;;5111947;27;20032;-59
2024/03/09 01:15:00;;;;;;;24.65;23.25;;;;;;;;;;5114139;27;20457;-59
2024/03/09 01:17:26;;;;;;;26.20;24.70;;;;;;;;;;5092934;27;20114;-59
2024/03/09 01:19:51;;;;;;;24.60;23.17;;;;;;;;;;5094340;27;20488;-59
2024/03/09 01:22:17;;;;;;;25.42;23.90;;;;;;;;;;5113388;27;20086;-59
2024/03/09 01:24:43;;;;;;;26.85;25.38;;;;;;;;;;5111456;27;20039;-59
2024/03/09 01:27:08;;;;;;;25.67;24.17;;;;;;;;;;5109841;27;20067;-59
2024/03/09 01:29:34;;;;;;;26.05;24.48;;;;;;;;;;5111503;27;20023;-59
2024/03/09 01:32:04;;;;;;;26.48;24.88;;;;;;;;;;5112599;27;20031;-59
2024/03/09 01:34:30;;;;;;;27.52;25.67;;;;;;;;;;5114932;27;20046;-59
2024/03/09 01:36:56;;;;;;;24.50;23.10;;;;;;;;;;5114091;27;20798;-59
2024/03/09 01:39:25;;;;;;;26.30;24.67;;;;;;;;;;5110142;27;20043;-59
2024/03/09 01:41:51;;;;;;;27.75;25.90;;;;;;;;;;5095748;28;20096;-59
2024/03/09 01:44:17;;;;;;;26.00;24.45;;;;;;;;;;5109932;28;20625;-59
2024/03/09 01:46:43;;;;;;;26.70;25.05;;;;;;;;;;5109402;27;20060;-59
2024/03/09 01:49:10;;;;;;;25.90;24.15;;;;;;;;;;5109590;27;20035;-59
2024/03/09 01:51:36;;;;;;;27.48;25.88;;;;;;;;;;5093026;28;20042;-59
2024/03/09 01:54:10;;;;;;;26.00;24.50;;;;;;;;;;5109414;28;20027;-59
2024/03/09 01:56:36;;;;;;;25.98;24.48;;;;;;;;;;5110579;28;20047;-59
2024/03/09 01:59:02;;;;;;;25.77;24.25;;;;;;;;;;5112888;28;20088;-59
2024/03/09 02:01:29;;;;;;;26.58;24.88;;;;;;;;;;5112681;28;20414;-59
2024/03/09 02:03:55;;;;;;;26.13;24.52;;;;;;;;;;5110328;28;20413;-59
2024/03/09 02:06:27;;;;;;;26.98;25.33;;;;;;;;;;5111805;28;20073;-59
2024/03/09 02:08:52;;;;;;;;;;;;;;;;;;5111864;28;20023;-59
2024/03/09 02:11:20;;;;;;;27.50;25.90;;;;;;;;;;5111387;27;19918;-59
2024/03/09 02:13:46;;;;;;;27.20;25.50;;;;;;;;;;5112003;27;20058;-59
2024/03/09 02:16:12;;;;;;;29.58;27.40;;;;;;;;;;5112928;27;20027;-59
2024/03/09 02:18:39;;;;;;;27.85;25.80;;;;;;;;;;5100264;27;20031;-59
2024/03/09 02:21:08;;;;;;;27.15;25.60;;;;;;;;;;5114617;27;20031;-59
2024/03/09 02:23:35;;;;;;;27.23;25.65;;;;;;;;;;5113197;27;20122;-59
2024/03/09 02:26:01;;;;;;;25.70;24.10;;;;;;;;;;5115001;27;20043;-59
2024/03/09 02:28:27;;;;;;;26.05;24.50;;;;;;;;;;5111877;27;20365;-59
2024/03/09 02:30:54;;;;;;;27.30;25.33;;;;;;;;;;5113687;27;20035;-59
2024/03/09 02:33:20;;;;;;;24.92;23.33;;;;;;;;;;5114827;27;20027;-59
2024/03/09 02:35:45;;;;;;;26.75;24.92;;;;;;;;;;5094680;27;20032;-59
2024/03/09 02:38:11;;;;;;;27.60;25.80;;;;;;;;;;5113067;27;20039;-59
2024/03/09 02:40:36;;;;;;;27.63;25.70;;;;;;;;;;5115983;27;20028;-59
2024/03/09 02:43:05;;;;;;;24.52;22.92;;;;;;;;;;5114414;27;20372;-59
2024/03/09 02:45:32;;;;;;;27.15;25.52;;;;;;;;;;5114132;27;20032;-59
2024/03/09 02:47:58;;;;;;;25.95;24.45;;;;;;;;;;5115993;27;20675;-59
2024/03/09 02:50:24;;;;;;;25.02;23.58;;;;;;;;;;5112616;27;20107;-59
2024/03/09 02:52:50;;;;;;;26.48;24.75;;;;;;;;;;5117414;27;20103;-59
2024/03/09 02:55:16;;;;;;;26.00;24.40;;;;;;;;;;5099010;27;20038;-59
2024/03/09 02:57:42;;;;;;;25.00;23.52;;;;;;;;;;5119513;27;20023;-59
2024/03/09 03:00:08;;;;;;;26.40;24.85;;;;;;;;;;5113420;27;20113;-60
2024/03/09 03:05:18;;;;;;;26.33;24.63;;;;;;;;;;5111222;27;20490;-59
2024/03/09 03:07:43;;;;;;;26.48;24.02;;;;;;;;;;5114251;27;20118;-59
2024/03/09 03:10:10;;;;;;;26.20;24.73;;;;;;;;;;5115832;27;20031;-59
2024/03/09 03:12:37;;;;;;;25.20;23.73;;;;;;;;;;5114722;27;20028;-59
2024/03/09 03:15:07;;;;;;;25.65;24.10;;;;;;;;;;5113218;27;20125;-59
2024/03/09 03:17:34;;;;;;;27.20;25.55;;;;;;;;;;5111814;27;20035;-59
2024/03/09 03:19:59;;;;;;;25.48;23.98;;;;;;;;;;5093011;27;20069;-59
2024/03/09 03:22:24;;;;;;;25.20;23.60;;;;;;;;;;5112161;27;20136;-59
2024/03/09 03:24:49;;;;;;;25.92;24.30;;;;;;;;;;5112787;27;20161;-59
2024/03/09 03:27:15;;;;;;;26.05;24.60;;;;;;;;;;5113608;27;20508;-59
2024/03/09 03:29:40;;;;;;;26.42;24.83;;;;;;;;;;5110426;27;20027;-59
2024/03/09 03:32:06;;;;;;;26.52;25.02;;;;;;;;;;5093069;27;20031;-60
2024/03/09 03:34:33;;;;;;;25.75;24.25;;;;;;;;;;5110330;27;20042;-59
2024/03/09 03:36:58;;;;;;;26.05;24.55;;;;;;;;;;5114415;27;20057;-59
2024/03/09 03:39:27;;;;;;;24.13;22.80;;;;;;;;;;5111995;27;20538;-59
2024/03/09 03:41:52;;;;;;;24.65;23.25;;;;;;;;;;5110588;27;20067;-59
2024/03/09 03:44:19;;;;;;;26.00;24.40;;;;;;;;;;5108004;27;20112;-59
2024/03/09 03:46:44;;;;;;;25.42;23.73;;;;;;;;;;5109039;27;20024;-59
2024/03/09 03:49:10;;;;;;;26.95;25.20;;;;;;;;;;5108514;27;20036;-60
2024/03/09 03:51:36;;;;;;;25.63;23.95;;;;;;;;;;5109341;27;20195;-59
2024/03/09 03:54:02;;;;;;;25.63;24.02;;;;;;;;;;5115976;27;20059;-60
2024/03/09 03:56:27;;;;;;;27.55;25.90;;;;;;;;;;5091396;27;20024;-59
2024/03/09 03:58:53;;;;;;;26.45;24.65;;;;;;;;;;5110433;27;20047;-59
2024/03/09 04:01:21;;;;;;;27.10;25.45;;;;;;;;;;5110794;27;20456;-59
2024/03/09 04:03:47;;;;;;;25.33;23.83;;;;;;;;;;5112805;27;20051;-59
2024/03/09 04:06:13;;;;;;;25.35;23.92;;;;;;;;;;5113352;27;20031;-60
2024/03/09 04:08:39;;;;;;;26.05;24.50;;;;;;;;;;5096403;27;20023;-59
2024/03/09 04:11:06;;;;;;;24.70;23.25;;;;;;;;;;5116474;27;20032;-60
2024/03/09 04:13:34;;;;;;;25.73;24.20;;;;;;;;;;5113776;27;20078;-60
2024/03/09 04:16:03;;;;;;;29.67;27.75;;;;;;;;;;5112755;27;20050;-60
2024/03/09 04:18:29;;;;;;;26.67;25.00;;;;;;;;;;5106536;27;20034;-60
2024/03/09 04:20:56;;;;;;;26.20;24.70;;;;;;;;;;5117798;27;20054;-60
2024/03/09 04:23:22;;;;;;;24.40;23.10;;;;;;;;;;5091824;28;20035;-60
2024/03/09 04:25:50;;;;;;;24.55;22.95;;;;;;;;;;5098112;27;20036;-60
2024/03/09 04:28:20;;;;;;;24.90;23.50;;;;;;;;;;5107393;27;20654;-60
2024/03/09 04:30:45;;;;;;;27.60;25.90;;;;;;;;;;5114291;27;20042;-60
2024/03/09 04:33:12;;;;;;;27.85;26.00;;;;;;;;;;5114700;27;20034;-60
2024/03/09 04:35:38;;;;;;;26.42;24.83;;;;;;;;;;5113397;27;20031;-60
2024/03/09 04:38:07;;;;;;;29.70;28.00;;;;;;;;;;5117198;27;20085;-60
2024/03/09 04:40:35;;;;;;;25.05;23.63;;;;;;;;;;5112621;27;20040;-60
2024/03/09 04:43:03;;;;;;;25.13;23.70;;;;;;;;;;5115073;27;20039;-59
2024/03/09 04:45:30;;;;;;;26.30;24.80;;;;;;;;;;5094266;27;20079;-60
2024/03/09 04:47:58;;;;;;;27.25;25.52;;;;;;;;;;5115362;27;20038;-60
2024/03/09 04:50:24;;;;;;;27.55;25.95;;;;;;;;;;5112325;27;20019;-60
2024/03/09 04:52:50;;;;;;;26.33;24.38;;;;;;;;;;5115826;27;20294;-60
2024/03/09 04:55:16;;;;;;;25.10;23.70;;;;;;;;;;5113847;27;20042;-60
2024/03/09 04:57:45;;;;;;;27.10;25.60;;;;;;;;;;5114189;27;20073;-60
2024/03/09 05:00:14;;;;;;;25.70;24.27;;;;;;;;;;5114167;27;20042;-60
2024/03/09 05:02:47;;;;;;;29.00;27.27;;;;;;;;;;5114542;27;20035;-60
2024/03/09 05:05:13;;;;;;;27.30;25.70;;;;;;;;;;5113850;27;20106;-60
2024/03/09 05:07:43;;;;;;;26.65;25.05;;;;;;;;;;5112029;27;20072;-60
2024/03/09 05:10:10;;;;;;;27.77;26.17;;;;;;;;;;5114159;27;20027;-60
2024/03/09 05:12:36;;;;;;;26.90;25.40;;;;;;;;;;5111697;27;20393;-60
2024/03/09 05:15:02;;;;;;;27.38;25.67;;;;;;;;;;5078342;27;20027;-60
2024/03/09 05:17:28;;;;;;;28.13;26.30;;;;;;;;;;5113935;27;20472;-60
2024/03/09 05:19:53;;;;;;;28.00;26.30;;;;;;;;;;5114397;27;20148;-59
2024/03/09 05:22:18;;;;;;;28.10;26.50;;;;;;;;;;5114510;27;20023;-60
2024/03/09 05:24:44;;;;;;;28.20;26.40;;;;;;;;;;5115629;27;20031;-59
2024/03/09 05:27:09;;;;;;;28.00;26.45;;;;;;;;;;5113924;27;20034;-61
2024/03/09 05:29:35;;;;;;;27.10;25.60;;;;;;;;;;5111536;27;20032;-60
2024/03/09 05:32:03;;;;;;;29.10;27.40;;;;;;;;;;5114834;27;20028;-60
2024/03/09 05:34:28;;;;;;;30.60;28.42;;;;;;;;;;5110136;27;20023;-60
2024/03/09 05:36:55;;;;;;;29.67;27.80;;;;;;;;;;5116053;27;20035;-60
2024/03/09 05:39:21;;;;;;;30.15;28.45;;;;;;;;;;5115868;27;20357;-60
2024/03/09 05:41:46;;;;;;;29.58;27.95;;;;;;;;;;5115405;27;20034;-59
2024/03/09 05:44:11;;;;;;;30.67;28.92;;;;;;;;;;5111188;27;20038;-59
2024/03/09 05:46:37;;;;;;;29.88;28.17;;;;;;;;;;5113204;27;20050;-59
2024/03/09 05:49:05;;;;;;;29.00;27.20;;;;;;;;;;5094970;28;20043;-60
2024/03/09 05:51:31;;;;;;;30.00;28.15;;;;;;;;;;5109188;27;20038;-60
2024/03/09 05:53:56;;;;;;;29.52;27.83;;;;;;;;;;5112713;27;20032;-60
2024/03/09 05:56:21;;;;;;;30.10;28.20;;;;;;;;;;5115290;28;20022;-60
2024/03/09 05:58:46;;;;;;;29.65;27.85;;;;;;;;;;5093132;28;20031;-59
2024/03/09 06:01:12;;;;;;;28.38;26.77;;;;;;;;;;5094847;28;20054;-60
2024/03/09 06:03:41;;;;;;;31.58;29.77;;;;;;;;;;5113276;28;20031;-60
2024/03/09 06:06:07;;;;;;;29.95;28.05;;;;;;;;;;5115508;28;20164;-60
2024/03/09 06:08:34;;;;;;;32.05;29.70;;;;;;;;;;5114775;28;20031;-60
2024/03/09 06:11:01;;;;;;;31.15;29.40;;;;;;;;;;5113243;28;20035;-60
2024/03/09 06:13:27;;;;;;;30.33;28.63;;;;;;;;;;5093355;28;20024;-59
2024/03/09 06:15:54;;;;;;;31.90;30.00;;;;;;;;;;5109179;28;20373;-59
2024/03/09 06:18:22;;;;;;;30.58;28.77;;;;;;;;;;5113681;28;20054;-60
2024/03/09 06:20:47;;;;;;;29.95;28.30;;;;;;;;;;5111173;28;20082;-60
2024/03/09 06:23:14;;;;;;;31.00;29.27;;;;;;;;;;5110771;28;20053;-60
2024/03/09 06:25:40;;;;;;;30.23;28.50;;;;;;;;;;5094865;28;20042;-59
2024/03/09 06:28:13;;;;;;;30.75;28.92;;;;;;;;;;5095523;28;20488;-58
2024/03/09 06:30:39;;;;;;;31.60;29.80;;;;;;;;;;5110010;28;20818;-59
2024/03/09 06:33:04;;;;;;;30.02;28.25;;;;;;;;;;5112840;28;20113;-60
2024/03/09 06:35:31;;;;;;;29.60;28.00;;;;;;;;;;5092602;28;20043;-60
2024/03/09 06:38:01;;;;;;;30.42;28.48;;;;;;;;;;5113754;28;20609;-59
2024/03/09 06:40:32;;;;;;;31.92;30.02;;;;;;;;;;5112494;28;20058;-59
2024/03/09 06:42:59;;;;;;;29.90;28.08;;;;;;;;;;5110217;28;20032;-59
2024/03/09 06:45:26;;;;;;;30.58;28.58;;;;;;;;;;5093987;28;20035;-59
2024/03/09 06:47:52;;;;;;;30.40;28.70;;;;;;;;;;5111309;28;20027;-60
2024/03/09 06:50:17;;;;;;;31.42;29.60;;;;;;;;;;5114437;28;20073;-60
2024/03/09 06:52:43;;;;;;;33.25;31.10;;;;;;;;;;5111530;28;20062;-59
2024/03/09 06:55:08;;;;;;;31.02;29.23;;;;;;;;;;5097227;28;20544;-59
2024/03/09 06:57:35;;;;;;;31.15;29.25;;;;;;;;;;5113451;28;20031;-60
2024/03/09 07:00:11;;;;;;;30.85;29.05;;;;;;;;;;5114716;27;20042;-59
2024/03/09 07:02:37;;;;;;;31.90;29.80;;;;;;;;;;5114702;27;20062;-60
2024/03/09 07:05:04;;;;;;;29.73;28.13;;;;;;;;;;5099058;27;20250;-60
2024/03/09 07:07:30;;;;;;;31.38;29.58;;;;;;;;;;5115407;27;20092;-59
2024/03/09 07:09:56;;;;;;;30.45;28.70;;;;;;;;;;5130890;27;20023;-60
2024/03/09 07:12:22;;;;;;;31.83;29.92;;;;;;;;;;5116247;27;20061;-59
2024/03/09 07:14:48;;;;;;;29.42;27.83;;;;;;;;;;5113621;27;20035;-59
2024/03/09 07:17:17;;;;;;;30.60;28.80;;;;;;;;;;5115491;27;20031;-60
2024/03/09 07:19:45;;;;;;;31.27;29.48;;;;;;;;;;5113598;27;20043;-60
2024/03/09 07:22:13;;;;;;;30.55;28.85;;;;;;;;;;5092189;27;20035;-60
2024/03/09 07:24:42;;;;;;;30.92;29.02;;;;;;;;;;5114609;27;20439;-60
2024/03/09 07:27:08;;;;;;;28.13;26.33;;;;;;;;;;5115619;27;20062;-60
2024/03/09 07:29:35;;;;;;;29.63;27.92;;;;;;;;;;5115518;27;20551;-60
2024/03/09 07:32:00;;;;;;;29.15;27.48;;;;;;;;;;5097083;27;20051;-61
2024/03/09 07:34:27;;;;;;;30.80;28.80;;;;;;;;;;5117240;27;20035;-60
2024/03/09 07:36:55;;;;;;;29.15;27.58;;;;;;;;;;5113215;27;20028;-60
2024/03/09 07:39:20;;;;;;;30.42;28.67;;;;;;;;;;5116295;27;20142;-59
2024/03/09 07:41:48;;;;;;;29.20;27.60;;;;;;;;;;5114858;27;20031;-59
2024/03/09 07:44:14;;;;;;;31.05;29.25;;;;;;;;;;5112071;27;20075;-60
2024/03/09 07:46:39;;;;;;;31.17;29.38;;;;;;;;;;5115766;27;20039;-60
2024/03/09 07:49:04;;;;;;;31.38;29.50;;;;;;;;;;5114093;27;20043;-60
2024/03/09 07:51:30;;;;;;;32.47;30.63;;;;;;;;;;5111820;27;20063;-60
2024/03/09 07:53:58;;;;;;;31.00;29.15;;;;;;;;;;5114960;27;20446;-60
2024/03/09 07:56:24;;;;;;;33.38;31.48;;;;;;;;;;5111322;27;20030;-60
2024/03/09 07:58:50;;;;;;;31.05;29.35;;;;;;;;;;5112532;27;20102;-60
2024/03/09 08:01:18;;;;;;;29.55;27.80;;;;;;;;;;5112283;27;20046;-60
2024/03/09 08:03:45;;;;;;;28.38;26.77;;;;;;;;;;5113700;27;20046;-60
2024/03/09 08:06:10;;;;;;;26.10;24.70;;;;;;;;;;5115135;27;20031;-60
2024/03/09 08:08:36;;;;;;;28.25;26.25;;;;;;;;;;5113144;27;20035;-60
2024/03/09 08:11:01;;;;;;;28.05;26.13;;;;;;;;;;5110071;27;20032;-60
2024/03/09 08:13:26;;;;;;;26.80;25.30;;;;;;;;;;5114091;27;20084;-60
2024/03/09 08:15:53;;;;;;;26.77;25.27;;;;;;;;;;5114720;27;20054;-60
2024/03/09 08:18:18;;;;;;;28.30;26.63;;;;;;;;;;5113559;27;20034;-60
2024/03/09 08:20:44;;;;;;;29.23;27.45;;;;;;;;;;5113523;27;20039;-60
2024/03/09 08:23:10;;;;;;;34.10;32.10;;;;;;;;;;5112147;27;20042;-60
2024/03/09 08:25:36;;;;;;;37.13;34.85;;;;;;;;;;5112781;27;20542;-60
2024/03/09 08:28:01;;;;;;;34.03;32.22;;;;;;;;;;5113636;27;20024;-60
2024/03/09 08:30:27;;;;;;;35.75;33.78;;;;;;;;;;5095893;27;20028;-60
2024/03/09 08:32:54;;;;;;;39.40;37.30;;;;;;;;;;5113833;27;20043;-60
2024/03/09 08:35:20;;;;;;;32.42;30.60;;;;;;;;;;5113279;27;20042;-61
2024/03/09 08:37:48;;;;;;;33.28;31.48;;;;;;;;;;5112605;27;20042;-60
2024/03/09 08:40:18;;;;;;;43.50;40.90;;;;;;;;;;5113892;27;20055;-60
2024/03/09 08:42:48;;;;;;;37.70;35.70;;;;;;;;;;5110818;27;20118;-61
2024/03/09 08:45:14;;;;;;;42.05;39.67;;;;;;;;;;5112876;27;20073;-61
2024/03/09 08:47:41;;;;;;;38.15;36.03;;;;;;;;;;5110725;27;20664;-60
2024/03/09 08:50:10;;;;;;;34.88;33.03;;;;;;;;;;5111640;27;20207;-61
2024/03/09 08:52:37;;;;;;;29.90;28.20;;;;;;;;;;5112566;27;20035;-61
2024/03/09 08:55:02;;;;;;;30.08;28.38;;;;;;;;;;5106964;27;20044;-61
2024/03/09 08:57:28;;;;;;;32.78;30.95;;;;;;;;;;5111603;27;20031;-61
2024/03/09 08:59:59;;;;;;;35.00;32.95;;;;;;;;;;5093804;27;20027;-60
2024/03/09 09:02:28;;;;;;;32.47;30.73;;;;;;;;;;5108713;27;20019;-60
2024/03/09 09:05:12;;;;;;;30.30;28.67;;;;;;;;;;5110747;27;20054;-61
2024/03/09 09:07:58;;;;;;;33.00;31.15;;;;;;;;;;5108804;27;20050;-61
2024/03/09 09:10:44;;;;;;;32.67;30.75;;;;;;;;;;5110038;27;20540;-61
2024/03/09 09:13:30;;;;;;;32.45;30.67;;;;;;;;;;5107544;27;20112;-62
2024/03/09 09:15:55;;;;;;;33.28;31.40;;;;;;;;;;5111602;27;20098;-61
2024/03/09 09:18:22;;;;;;;38.17;36.05;;;;;;;;;;5109374;27;20039;-61
2024/03/09 09:20:48;;;;;;;38.47;36.38;;;;;;;;;;5110464;27;20035;-60
2024/03/09 09:23:14;;;;;;;40.33;38.00;;;;;;;;;;5109491;27;20437;-60
2024/03/09 09:25:39;;;;;;;45.45;42.88;;;;;;;;;;5091781;27;20027;-61
2024/03/09 09:28:05;;;;;;;41.20;39.00;;;;;;;;;;5109315;27;20048;-61
2024/03/09 09:30:32;;;;;;;46.58;44.10;;;;;;;;;;5110328;27;20051;-59
2024/03/09 09:32:58;;;;;;;44.13;41.53;;;;;;;;;;5107755;27;20047;-60
2024/03/09 09:35:23;;;;;;;49.47;46.83;;;;;;;;;;5092947;28;20051;-59
2024/03/09 09:37:48;;;;;;;43.60;41.30;;;;;;;;;;5109341;27;20115;-60
2024/03/09 09:40:14;;;;;;;39.60;37.40;;;;;;;;;;5112533;27;21087;-60
2024/03/09 09:42:42;;;;;;;46.78;44.22;;;;;;;;;;5109557;27;20058;-61
2024/03/09 09:45:16;;;;;;;43.13;40.47;;;;;;;;;;5109629;27;20432;-61
2024/03/09 09:47:42;;;;;;;44.08;41.38;;;;;;;;;;5109434;27;20043;-58
2024/03/09 09:50:08;;;;;;;42.42;40.15;;;;;;;;;;5114601;27;20046;-60
2024/03/09 09:52:36;;;;;;;42.60;40.30;;;;;;;;;;5112016;27;20559;-58
2024/03/09 09:55:02;;;;;;;40.40;38.13;;;;;;;;;;5110829;28;20108;-58
2024/03/09 09:57:28;;;;;;;37.28;35.22;;;;;;;;;;5111991;28;20458;-59
2024/03/09 09:59:54;;;;;;;37.28;35.28;;;;;;;;;;5108159;28;20597;-60
2024/03/09 10:02:22;;;;;;;41.40;39.17;;;;;;;;;;5113679;28;20053;-60
2024/03/09 10:04:51;;;;;;;41.00;38.33;;;;;;;;;;5110064;28;20118;-61
2024/03/09 10:07:17;;;;;;;36.35;34.22;;;;;;;;;;5113768;28;20136;-60
2024/03/09 10:09:42;;;;;;;36.65;34.47;;;;;;;;;;5109383;28;20540;-58
2024/03/09 10:12:23;;;;;;;32.40;30.60;;;;;;;;;;5108945;28;20062;-58
2024/03/09 10:14:49;;;;;;;40.40;38.20;;;;;;;;;;5110099;28;20039;-58
2024/03/09 10:17:15;;;;;;;37.42;35.42;;;;;;;;;;5111345;28;20020;-58
2024/03/09 10:19:40;;;;;;;36.78;34.10;;;;;;;;;;5114404;28;20062;-60
2024/03/09 10:22:08;;;;;;;43.20;40.45;;;;;;;;;;5110694;28;20070;-60
2024/03/09 10:24:33;;;;;;;36.92;34.83;;;;;;;;;;5095587;28;20417;-60
2024/03/09 10:27:06;;;;;;;37.78;35.22;;;;;;;;;;5108873;28;20056;-60
2024/03/09 10:29:31;;;;;;;34.58;32.55;;;;;;;;;;5092141;28;21100;-60
2024/03/09 10:31:58;;;;;;;36.38;34.35;;;;;;;;;;5109128;28;20054;-60
2024/03/09 10:34:28;;;;;;;35.25;33.05;;;;;;;;;;5097310;27;20423;-60
2024/03/09 10:36:55;;;;;;;35.85;33.75;;;;;;;;;;5115831;27;20065;-60
2024/03/09 10:39:20;;;;;;;34.10;32.13;;;;;;;;;;5119221;27;20623;-60
2024/03/09 10:41:49;;;;;;;36.50;34.40;;;;;;;;;;5117160;27;20118;-60
2024/03/09 10:44:14;;;;;;;34.92;32.75;;;;;;;;;;5116173;27;20083;-60
2024/03/09 10:46:42;;;;;;;34.35;32.47;;;;;;;;;;5118943;27;20189;-61
2024/03/09 10:49:11;;;;;;;32.72;30.83;;;;;;;;;;5098049;27;20058;-61
2024/03/09 10:51:41;;;;;;;28.70;27.10;;;;;;;;;;5098245;27;20122;-60
2024/03/09 10:54:30;;;;;;;32.92;31.10;;;;;;;;;;5116833;27;23861;-61
2024/03/09 10:56:57;;;;;;;32.95;31.00;;;;;;;;;;5087535;27;20468;-60
2024/03/09 10:59:23;;;;;;;31.50;29.70;;;;;;;;;;5113801;27;20047;-60
2024/03/09 11:01:52;;;;;;;34.60;32.70;;;;;;;;;;5115637;27;20032;-61
2024/03/09 11:04:19;;;;;;;30.95;29.30;;;;;;;;;;5115729;27;20036;-61
2024/03/09 11:06:47;;;;;;;33.75;31.70;;;;;;;;;;5115769;27;20145;-60
2024/03/09 11:09:15;;;;;;;31.30;29.55;;;;;;;;;;5113438;27;20038;-61
2024/03/09 11:11:41;;;;;;;32.42;30.38;;;;;;;;;;5113052;27;20027;-61
2024/03/09 11:14:06;;;;;;;33.30;31.20;;;;;;;;;;5111326;27;20058;-62
2024/03/09 11:16:32;;;;;;;34.67;32.58;;;;;;;;;;5115061;27;20038;-61
2024/03/09 11:18:59;;;;;;;38.60;36.30;;;;;;;;;;5113119;27;20038;-60
2024/03/09 11:21:29;;;;;;;38.55;36.45;;;;;;;;;;5116080;27;20031;-60
2024/03/09 11:24:02;;;;;;;42.07;39.67;;;;;;;;;;5114047;27;20035;-60
2024/03/09 11:26:31;;;;;;;39.25;36.92;;;;;;;;;;5110709;27;20300;-60
2024/03/09 11:28:56;;;;;;;37.33;35.30;;;;;;;;;;5112555;27;20138;-60
2024/03/09 11:31:28;;;;;;;40.42;38.20;;;;;;;;;;5112322;27;20111;-60
2024/03/09 11:33:58;;;;;;;43.08;40.75;;;;;;;;;;5096996;27;20038;-60
2024/03/09 11:36:42;;;;;;;39.28;37.17;;;;;;;;;;5113339;27;20115;-60
2024/03/09 11:39:08;;;;;;;39.78;37.67;;;;;;;;;;5112227;27;20102;-60
2024/03/09 11:41:38;;;;;;;41.78;39.25;;;;;;;;;;5113318;27;20107;-60
2024/03/09 11:44:04;;;;;;;43.43;41.07;;;;;;;;;;5116202;27;20376;-61
2024/03/09 11:46:34;;;;;;;43.45;41.08;;;;;;;;;;5115852;27;20038;-60
2024/03/09 11:49:03;;;;;;;44.15;41.72;;;;;;;;;;5097906;27;20035;-60
2024/03/09 11:51:33;;;;;;;41.45;39.15;;;;;;;;;;5113151;27;20038;-60
2024/03/09 11:54:03;;;;;;;42.10;39.90;;;;;;;;;;5109797;27;20028;-60
2024/03/09 11:56:31;;;;;;;43.55;41.20;;;;;;;;;;5116058;27;20064;-61
2024/03/09 11:58:57;;;;;;;40.83;38.53;;;;;;;;;;5110497;27;20584;-59
2024/03/09 12:01:22;;;;;;;39.95;37.70;;;;;;;;;;5114937;27;20064;-60
2024/03/09 12:03:53;;;;;;;38.58;36.55;;;;;;;;;;5112364;27;20043;-60
2024/03/09 12:06:19;;;;;;;39.50;37.38;;;;;;;;;;5094310;27;20407;-61
2024/03/09 12:08:44;;;;;;;42.25;39.90;;;;;;;;;;5097273;27;20050;-61
2024/03/09 12:11:10;;;;;;;40.20;37.95;;;;;;;;;;5112976;27;20383;-62
2024/03/09 12:13:35;;;;;;;38.03;36.00;;;;;;;;;;5113779;27;20047;-61
2024/03/09 12:16:01;;;;;;;38.72;36.42;;;;;;;;;;5114939;27;20123;-62
2024/03/09 12:18:27;;;;;;;38.40;36.30;;;;;;;;;;5112892;27;20042;-62
2024/03/09 12:20:53;;;;;;;37.15;35.00;;;;;;;;;;5115347;27;20046;-63
2024/03/09 12:23:19;;;;;;;42.15;39.65;;;;;;;;;;5113407;27;20027;-61
2024/03/09 12:25:47;;;;;;;39.35;36.55;;;;;;;;;;5114919;27;20032;-60
2024/03/09 12:28:16;;;;;;;35.80;33.60;;;;;;;;;;5114179;27;20042;-61
2024/03/09 12:30:48;;;;;;;39.50;36.78;;;;;;;;;;5113194;27;20221;-61
2024/03/09 12:33:14;;;;;;;38.17;36.08;;;;;;;;;;5113878;27;20027;-60
2024/03/09 12:35:41;;;;;;;38.42;36.28;;;;;;;;;;5116443;27;20039;-62
2024/03/09 12:38:14;;;;;;;37.15;35.15;;;;;;;;;;5111882;27;20040;-62
2024/03/09 12:40:44;;;;;;;38.88;36.78;;;;;;;;;;5113404;27;20503;-62
2024/03/09 12:43:10;;;;;;;38.10;36.00;;;;;;;;;;5113050;27;20047;-61
2024/03/09 12:45:36;;;;;;;38.28;36.08;;;;;;;;;;5111710;27;20567;-60
2024/03/09 12:48:02;;;;;;;39.92;37.72;;;;;;;;;;5110284;27;20040;-62
2024/03/09 12:50:28;;;;;;;36.38;34.25;;;;;;;;;;5110559;27;20077;-62
2024/03/09 12:52:54;;;;;;;40.17;37.78;;;;;;;;;;5114969;27;20050;-61
2024/03/09 12:55:20;;;;;;;49.60;46.83;;;;;;;;;;5110883;27;20088;-61
2024/03/09 12:57:52;;;;;;;37.80;35.70;;;;;;;;;;5093892;27;20126;-61
2024/03/09 13:00:23;;;;;;;34.83;32.63;;;;;;;;;;5112643;27;20036;-61
2024/03/09 13:02:50;;;;;;;37.00;34.88;;;;;;;;;;5112222;27;20023;-62
2024/03/09 13:05:20;;;;;;;37.22;34.60;;;;;;;;;;5094027;27;20110;-61
2024/03/09 13:07:52;;;;;;;33.35;31.55;;;;;;;;;;5113660;27;20099;-60
2024/03/09 13:10:21;;;;;;;38.20;35.92;;;;;;;;;;5109820;27;20032;-61
2024/03/09 13:12:47;;;;;;;34.28;32.10;;;;;;;;;;5111236;27;20130;-61
2024/03/09 13:15:18;;;;;;;39.03;36.88;;;;;;;;;;5113128;27;20110;-61
2024/03/09 13:17:44;;;;;;;45.55;43.05;;;;;;;;;;5113827;27;20619;-60
2024/03/09 13:20:17;;;;;;;44.25;41.65;;;;;;;;;;5113148;27;20032;-61
2024/03/09 13:22:47;;;;;;;39.60;37.38;;;;;;;;;;5112495;27;20031;-60
2024/03/09 13:25:12;;;;;;;46.50;43.80;;;;;;;;;;5110101;27;20093;-61
2024/03/09 13:27:38;;;;;;;42.90;40.63;;;;;;;;;;5109330;27;20047;-60
2024/03/09 13:30:17;;;;;;;43.47;41.17;;;;;;;;;;5111162;27;20053;-60
2024/03/09 13:32:46;;;;;;;48.00;45.22;;;;;;;;;;5113134;27;20425;-60
2024/03/09 13:35:14;;;;;;;47.25;44.72;;;;;;;;;;5110224;27;20058;-60
2024/03/09 13:37:40;;;;;;;50.50;47.55;;;;;;;;;;5112175;27;20133;-60
2024/03/09 13:40:10;;;;;;;36.72;34.72;;;;;;;;;;5112495;27;20042;-60
2024/03/09 13:42:36;;;;;;;41.97;39.65;;;;;;;;;;5112743;27;20100;-60
2024/03/09 13:45:09;;;;;;;47.78;45.28;;;;;;;;;;5112349;27;20702;-60
2024/03/09 13:47:38;;;;;;;47.58;45.03;;;;;;;;;;5112914;27;20039;-62
2024/03/09 13:50:06;;;;;;;51.53;48.72;;;;;;;;;;5110468;27;20043;-60
2024/03/09 13:52:31;;;;;;;47.13;44.58;;;;;;;;;;5112026;27;20042;-60
2024/03/09 13:54:57;;;;;;;46.95;44.40;;;;;;;;;;5110547;27;20031;-60
2024/03/09 13:57:25;;;;;;;39.38;37.17;;;;;;;;;;5110019;28;20034;-61
2024/03/09 13:59:50;;;;;;;26.20;24.55;;;;;;;;;;5112364;28;20039;-60
2024/03/09 14:02:16;;;;;;;28.48;26.70;;;;;;;;;;5112944;28;20658;-60
2024/03/09 14:04:42;;;;;;;31.73;29.10;;;;;;;;;;5111180;28;20046;-60
2024/03/09 14:07:08;;;;;;;32.72;30.75;;;;;;;;;;5113357;28;20380;-60
2024/03/09 14:09:39;;;;;;;35.20;33.05;;;;;;;;;;5113829;27;20493;-61
2024/03/09 14:12:08;;;;;;;36.75;34.60;;;;;;;;;;5118389;27;20040;-61
2024/03/09 14:14:36;;;;;;;32.65;30.70;;;;;;;;;;5111818;27;20156;-61
2024/03/09 14:17:07;;;;;;;34.20;32.33;;;;;;;;;;5113639;27;20031;-61
2024/03/09 14:19:32;;;;;;;35.78;33.75;;;;;;;;;;5118339;27;20039;-61
2024/03/09 14:21:58;;;;;;;36.33;32.83;;;;;;;;;;5117121;27;20757;-60